createdAt,value
2022-09-14T00:01:26.868Z,4.90
2022-09-14T00:03:58.351Z,5.57
2022-09-14T00:06:26.984Z,5.10
2022-09-14T00:08:56.701Z,4.63
2022-09-14T00:11:26.349Z,5.10
2022-09-14T00:13:55.066Z,5.45
2022-09-14T00:16:24.644Z,5.55
2022-09-14T00:18:53.536Z,5.25
2022-09-14T00:21:23.452Z,5.18
2022-09-14T00:23:51.757Z,5.53
2022-09-14T00:26:21.060Z,4.97
2022-09-14T00:28:49.982Z,5.32
2022-09-14T00:31:18.893Z,4.88
2022-09-14T00:33:48.693Z,4.72
2022-09-14T00:36:17.872Z,5.57
2022-09-14T00:38:48.546Z,5.50
2022-09-14T00:41:18.380Z,4.90
2022-09-14T00:43:55.263Z,5.55
2022-09-14T00:46:23.628Z,5.28
2022-09-14T00:48:52.037Z,5.15
2022-09-14T00:51:21.077Z,5.30
2022-09-14T00:53:50.849Z,4.80
2022-09-14T00:56:19.288Z,5.07
2022-09-14T00:58:48.559Z,5.05
2022-09-14T01:01:17.257Z,5.20
2022-09-14T01:03:45.684Z,5.18
2022-09-14T01:06:17.726Z,4.97
2022-09-14T01:08:55.930Z,4.63
2022-09-14T01:11:34.022Z,4.80
2022-09-14T01:14:05.223Z,5.00
2022-09-14T01:16:36.349Z,4.88
2022-09-14T01:19:07.099Z,5.20
2022-09-14T01:21:37.110Z,5.03
2022-09-14T01:24:08.586Z,5.57
2022-09-14T01:26:54.756Z,5.03
2022-09-14T01:29:27.567Z,5.15
2022-09-14T01:31:58.674Z,5.60
2022-09-14T01:34:30.545Z,5.18
2022-09-14T01:37:01.290Z,4.90
2022-09-14T01:39:32.483Z,5.38
2022-09-14T01:42:01.687Z,5.18
2022-09-14T01:44:32.852Z,4.93
2022-09-14T01:47:04.984Z,5.13
2022-09-14T01:49:35.211Z,5.22
2022-09-14T01:52:06.305Z,5.55
2022-09-14T01:54:36.775Z,4.80
2022-09-14T01:57:09.544Z,5.25
2022-09-14T01:59:40.941Z,5.27
2022-09-14T02:02:10.961Z,5.30
2022-09-14T02:04:42.018Z,6.00
2022-09-14T02:07:10.607Z,5.70
2022-09-14T02:09:39.639Z,5.63
2022-09-14T02:12:08.216Z,5.10
2022-09-14T02:14:36.596Z,6.40
2022-09-14T02:17:08.325Z,6.18
2022-09-14T02:19:45.923Z,5.93
2022-09-14T02:22:14.875Z,6.05
2022-09-14T02:24:43.303Z,5.70
2022-09-14T02:27:11.670Z,5.78
2022-09-14T02:29:40.273Z,5.97
2022-09-14T02:32:16.993Z,6.15
2022-09-14T02:34:50.662Z,5.78
2022-09-14T02:39:49.188Z,5.80
2022-09-14T02:42:22.616Z,6.82
2022-09-14T02:44:54.457Z,6.38
2022-09-14T02:47:26.834Z,6.07
2022-09-14T02:50:00.000Z,5.97
2022-09-14T02:52:33.089Z,5.78
2022-09-14T02:55:04.237Z,5.90
2022-09-14T02:57:32.717Z,6.40
2022-09-14T03:00:01.126Z,5.57
2022-09-14T03:02:33.124Z,5.93
2022-09-14T03:05:01.815Z,5.97
2022-09-14T03:07:30.129Z,6.43
2022-09-14T03:09:58.897Z,6.10
2022-09-14T03:12:28.945Z,6.05
2022-09-14T03:14:58.358Z,5.93
2022-09-14T03:17:26.915Z,6.30
2022-09-14T03:20:28.792Z,6.85
2022-09-14T03:23:13.989Z,6.80
2022-09-14T03:25:47.366Z,6.50
2022-09-14T03:28:16.022Z,6.80
2022-09-14T03:30:44.943Z,7.38
2022-09-14T03:33:15.430Z,7.07
2022-09-14T03:35:43.905Z,7.70
2022-09-14T03:38:13.685Z,7.10
2022-09-14T03:40:42.351Z,7.18
2022-09-14T03:43:12.518Z,7.43
2022-09-14T03:45:42.483Z,6.63
2022-09-14T03:48:11.547Z,6.53
2022-09-14T03:50:40.084Z,7.03
2022-09-14T03:53:08.689Z,7.03
2022-09-14T03:55:38.398Z,6.88
2022-09-14T03:58:06.844Z,7.03
2022-09-14T04:00:37.616Z,6.97
2022-09-14T04:03:06.047Z,7.18
2022-09-14T04:05:34.670Z,6.63
2022-09-14T04:08:03.058Z,6.97
2022-09-14T04:10:31.334Z,6.72
2022-09-14T04:13:01.993Z,7.30
2022-09-14T04:15:30.540Z,6.72
2022-09-14T04:17:59.544Z,6.78
2022-09-14T04:20:27.889Z,6.68
2022-09-14T04:22:56.410Z,6.30
2022-09-14T04:25:24.728Z,6.68
2022-09-14T04:28:16.772Z,6.90
2022-09-14T04:30:42.777Z,6.47
2022-09-14T04:33:12.781Z,6.82
2022-09-14T04:35:43.831Z,7.13
2022-09-14T04:38:12.132Z,7.20
2022-09-14T04:40:43.012Z,7.15
2022-09-14T04:43:11.297Z,7.72
2022-09-14T04:45:39.574Z,7.40
2022-09-14T04:48:10.638Z,7.68
2022-09-14T04:50:38.979Z,7.10
2022-09-14T04:53:07.346Z,6.65
2022-09-14T04:55:36.856Z,6.95
2022-09-14T04:58:05.625Z,6.85
2022-09-14T05:00:35.915Z,7.47
2022-09-14T05:03:04.817Z,6.65
2022-09-14T05:05:40.067Z,6.43
2022-09-14T05:08:11.323Z,6.65
2022-09-14T05:10:39.600Z,6.70
2022-09-14T05:13:08.011Z,8.50
2022-09-14T05:15:37.915Z,10.13
2022-09-14T05:18:06.306Z,8.10
2022-09-14T05:20:36.727Z,7.40
2022-09-14T05:23:06.164Z,7.57
2022-09-14T05:25:34.495Z,6.65
2022-09-14T05:28:02.922Z,6.60
2022-09-14T05:30:31.226Z,6.50
2022-09-14T05:32:59.535Z,9.10
2022-09-14T05:35:27.805Z,9.60
2022-09-14T05:37:57.473Z,7.38
2022-09-14T05:40:27.027Z,6.63
2022-09-14T05:42:55.342Z,7.80
2022-09-14T05:45:23.668Z,8.55
2022-09-14T05:47:52.032Z,7.15
2022-09-14T05:50:20.469Z,6.97
2022-09-14T05:52:49.272Z,7.32
2022-09-14T05:55:18.890Z,6.90
2022-09-14T05:57:50.636Z,7.13
2022-09-14T06:00:18.983Z,6.95
2022-09-14T06:02:50.664Z,6.90
2022-09-14T06:05:19.750Z,6.75
2022-09-14T06:07:52.513Z,6.45
2022-09-14T06:10:22.662Z,6.85
2022-09-14T06:12:54.867Z,6.47
2022-09-14T06:15:24.656Z,7.40
2022-09-14T06:17:53.154Z,6.32
2022-09-14T06:20:21.445Z,6.07
2022-09-14T06:22:49.737Z,6.63
2022-09-14T06:25:18.285Z,6.03
2022-09-14T06:27:47.928Z,6.22
2022-09-14T06:30:16.406Z,6.18
2022-09-14T06:32:44.697Z,6.15
2022-09-14T06:35:12.974Z,6.80
2022-09-14T06:37:41.339Z,6.45
2022-09-14T06:40:10.607Z,6.35
2022-09-14T06:42:38.962Z,6.40
2022-09-14T06:45:09.544Z,5.85
2022-09-14T06:47:37.864Z,6.70
2022-09-14T06:50:06.621Z,6.47
2022-09-14T06:52:34.967Z,6.07
2022-09-14T06:55:04.896Z,6.60
2022-09-14T06:57:33.392Z,7.00
2022-09-14T07:00:02.777Z,6.07
2022-09-14T07:02:32.486Z,6.30
2022-09-14T07:05:00.843Z,6.05
2022-09-14T07:07:29.131Z,6.65
2022-09-14T07:09:57.431Z,6.32
2022-09-14T07:12:25.841Z,6.03
2022-09-14T07:14:54.105Z,6.80
2022-09-14T07:17:22.406Z,6.22
2022-09-14T07:19:52.059Z,5.90
2022-09-14T07:22:20.599Z,6.13
2022-09-14T07:24:48.869Z,6.05
2022-09-14T07:27:17.194Z,5.60
2022-09-14T07:29:45.722Z,6.63
2022-09-14T07:32:13.999Z,6.35
2022-09-14T07:34:42.267Z,5.95
2022-09-14T07:37:11.957Z,5.78
2022-09-14T07:39:40.240Z,5.45
2022-09-14T07:42:08.674Z,5.68
2022-09-14T07:44:36.938Z,5.68
2022-09-14T07:47:05.323Z,5.78
2022-09-14T07:49:33.575Z,5.70
2022-09-14T07:52:01.856Z,6.05
2022-09-14T07:54:31.617Z,6.55
2022-09-14T07:57:00.008Z,6.10
2022-09-14T07:59:36.219Z,6.13
2022-09-14T08:02:07.369Z,6.22
2022-09-14T08:04:36.668Z,6.00
2022-09-14T08:07:06.225Z,6.13
2022-09-14T08:09:35.861Z,5.70
2022-09-14T08:12:06.936Z,6.63
2022-09-14T08:14:35.400Z,6.78
2022-09-14T08:17:03.748Z,5.70
2022-09-14T08:19:32.256Z,6.88
2022-09-14T08:22:00.555Z,6.18
2022-09-14T08:24:28.842Z,6.22
2022-09-14T08:26:58.479Z,6.30
2022-09-14T08:29:26.766Z,5.95
2022-09-14T08:31:55.152Z,6.00
2022-09-14T08:34:23.793Z,5.93
2022-09-14T08:36:52.317Z,6.15
2022-09-14T08:39:20.818Z,5.80
2022-09-14T08:41:56.515Z,6.20
2022-09-14T08:44:31.018Z,5.68
2022-09-14T08:47:03.205Z,6.75
2022-09-14T08:49:38.572Z,6.28
2022-09-14T08:52:08.826Z,6.45
2022-09-14T08:54:38.082Z,5.63
2022-09-14T08:57:11.495Z,5.78
2022-09-14T08:59:46.516Z,5.60
2022-09-14T09:02:24.344Z,6.22
2022-09-14T09:04:55.845Z,5.70
2022-09-14T09:07:29.142Z,5.57
2022-09-14T09:09:58.840Z,6.18
2022-09-14T09:12:31.848Z,5.80
2022-09-14T09:15:03.280Z,5.88
2022-09-14T09:17:33.149Z,6.00
2022-09-14T09:20:05.854Z,6.10
2022-09-14T09:22:41.826Z,6.53
2022-09-14T09:25:15.438Z,6.40
2022-09-14T09:30:15.941Z,5.63
2022-09-14T09:32:44.598Z,6.43
2022-09-14T09:35:16.875Z,5.60
2022-09-14T09:37:45.726Z,5.32
2022-09-14T09:40:18.917Z,5.05
2022-09-14T09:43:02.408Z,5.57
2022-09-14T09:45:48.068Z,4.10
2022-09-14T09:48:20.525Z,4.03
2022-09-14T09:50:49.682Z,3.17
2022-09-14T09:53:20.691Z,3.50
2022-09-14T09:55:50.360Z,3.75
2022-09-14T09:58:23.320Z,3.97
2022-09-14T10:00:58.698Z,4.15
2022-09-14T10:03:32.274Z,4.22
2022-09-14T10:06:05.090Z,4.30
2022-09-14T10:08:35.167Z,3.65
2022-09-14T10:11:05.108Z,4.05
2022-09-14T10:13:38.406Z,4.30
2022-09-14T10:16:09.774Z,3.85
2022-09-14T10:18:45.633Z,4.22
2022-09-14T10:21:18.080Z,3.42
2022-09-14T10:23:46.587Z,3.05
2022-09-14T10:26:22.123Z,3.72
2022-09-14T10:28:53.409Z,3.15
2022-09-14T10:31:35.221Z,3.47
2022-09-14T10:34:04.995Z,3.40
2022-09-14T10:36:39.364Z,3.10
2022-09-14T10:39:26.326Z,3.45
2022-09-14T10:42:00.577Z,3.83
2022-09-14T10:44:44.697Z,4.03
2022-09-14T10:47:24.158Z,3.72
2022-09-14T10:50:04.822Z,3.78
2022-09-14T10:52:42.803Z,3.10
2022-09-14T10:55:34.032Z,3.00
2022-09-14T10:58:06.958Z,3.50
2022-09-14T11:00:49.437Z,2.97
2022-09-14T11:03:45.244Z,3.13
2022-09-14T11:06:26.307Z,3.13
2022-09-14T11:08:57.923Z,2.45
2022-09-14T11:11:35.720Z,3.10
2022-09-14T11:14:12.537Z,2.80
2022-09-14T11:16:56.973Z,2.72
2022-09-14T11:19:31.632Z,2.60
2022-09-14T11:22:07.046Z,2.70
2022-09-14T11:24:40.360Z,3.00
2022-09-14T11:27:13.902Z,2.83
2022-09-14T11:32:23.153Z,2.80
2022-09-14T11:34:58.244Z,3.00
2022-09-14T11:37:34.428Z,2.70
2022-09-14T11:40:08.591Z,2.63
2022-09-14T11:42:39.513Z,2.85
2022-09-14T11:45:15.517Z,2.83
2022-09-14T11:47:47.462Z,2.85
2022-09-14T11:50:20.720Z,2.75
2022-09-14T11:52:53.253Z,2.85
2022-09-14T11:55:24.249Z,3.00
2022-09-14T11:57:55.043Z,2.60
2022-09-14T12:00:41.159Z,2.63
2022-09-14T12:03:20.078Z,2.95
2022-09-14T12:05:54.216Z,2.60
2022-09-14T12:08:46.858Z,2.78
2022-09-14T12:11:38.001Z,2.97
2022-09-14T12:14:34.419Z,2.90
2022-09-14T12:20:23.972Z,3.10
2022-09-14T12:22:56.076Z,3.63
2022-09-14T12:25:25.653Z,3.38
2022-09-14T12:27:59.353Z,3.10
2022-09-14T12:30:54.949Z,3.25
2022-09-14T12:33:42.159Z,3.30
2022-09-14T12:36:35.792Z,3.22
2022-09-14T12:39:14.581Z,3.50
2022-09-14T12:42:15.895Z,3.40
2022-09-14T12:44:45.979Z,3.60
2022-09-14T12:47:35.503Z,3.47
2022-09-14T12:50:11.034Z,3.58
2022-09-14T12:53:06.369Z,3.33
2022-09-14T12:56:04.221Z,3.72
2022-09-14T12:58:45.102Z,4.13
2022-09-14T13:01:28.941Z,4.05
2022-09-14T13:03:59.069Z,3.90
2022-09-14T13:06:36.352Z,4.22
2022-09-14T13:09:16.718Z,3.97
2022-09-14T13:11:45.193Z,4.10
2022-09-14T13:14:18.346Z,4.25
2022-09-14T13:16:52.321Z,4.68
2022-09-14T13:19:24.203Z,4.82
2022-09-14T13:21:54.232Z,4.38
2022-09-14T13:24:27.913Z,6.28
2022-09-14T13:27:03.097Z,6.57
2022-09-14T13:29:33.598Z,5.28
2022-09-14T13:32:07.864Z,4.50
2022-09-14T13:34:38.831Z,4.22
2022-09-14T13:37:12.388Z,4.38
2022-09-14T13:39:42.881Z,4.43
2022-09-14T13:42:13.141Z,4.70
2022-09-14T13:44:47.884Z,4.88
2022-09-14T13:47:18.852Z,4.30
2022-09-14T13:49:49.011Z,4.50
2022-09-14T13:52:57.437Z,4.85
2022-09-14T13:55:27.997Z,4.90
2022-09-14T14:00:33.106Z,4.53
2022-09-14T14:03:05.312Z,4.38
2022-09-14T14:05:34.851Z,4.35
2022-09-14T14:08:29.526Z,4.55
2022-09-14T14:11:05.164Z,4.10
2022-09-14T14:13:40.107Z,4.63
2022-09-14T14:16:18.258Z,4.43
2022-09-14T14:18:52.065Z,4.15
2022-09-14T14:21:34.699Z,4.38
2022-09-14T14:24:20.757Z,5.03
2022-09-14T14:26:53.253Z,4.90
2022-09-14T14:29:21.873Z,5.07
2022-09-14T14:32:02.598Z,5.30
2022-09-14T14:34:38.157Z,5.07
2022-09-14T14:37:16.254Z,5.18
2022-09-14T14:39:49.519Z,5.07
2022-09-14T14:44:51.070Z,4.82
2022-09-14T14:47:55.103Z,7.80
2022-09-14T14:50:36.147Z,5.38
2022-09-14T14:53:11.252Z,5.13
2022-09-14T14:55:43.612Z,5.53
2022-09-14T14:58:21.725Z,5.15
2022-09-14T15:00:51.049Z,5.72
2022-09-14T15:03:20.353Z,5.63
2022-09-14T15:05:51.036Z,6.13
2022-09-14T15:08:22.901Z,6.75
2022-09-14T15:10:57.614Z,6.10
2022-09-14T15:13:26.470Z,6.95
2022-09-14T15:15:56.217Z,7.05
2022-09-14T15:18:25.201Z,5.93
2022-09-14T15:20:55.006Z,6.60
2022-09-14T15:23:23.500Z,6.95
2022-09-14T15:25:53.011Z,7.53
2022-09-14T15:28:22.140Z,6.60
2022-09-14T15:30:52.117Z,6.93
2022-09-14T15:33:20.575Z,6.47
2022-09-14T15:35:55.830Z,7.88
2022-09-14T15:38:25.563Z,6.70
2022-09-14T15:40:54.401Z,6.38
2022-09-14T15:43:23.113Z,4.47
2022-09-14T15:45:51.767Z,2.08
2022-09-14T15:48:20.311Z,1.58
2022-09-14T15:50:49.538Z,1.30
2022-09-14T15:53:19.001Z,1.40
2022-09-14T15:55:48.769Z,1.30
2022-09-14T15:58:17.259Z,1.35
2022-09-14T16:00:46.472Z,1.67
2022-09-14T16:03:18.197Z,2.10
2022-09-14T16:05:46.663Z,2.00
2022-09-14T16:08:15.245Z,1.60
2022-09-14T16:10:43.589Z,1.60
2022-09-14T16:13:13.889Z,1.80
2022-09-14T16:15:42.293Z,1.15
2022-09-14T16:18:19.442Z,1.40
2022-09-14T16:20:50.946Z,1.25
2022-09-14T16:23:19.699Z,1.10
2022-09-14T16:25:50.464Z,1.13
2022-09-14T16:28:20.852Z,1.30
2022-09-14T16:30:49.753Z,1.40
2022-09-14T16:33:19.339Z,1.30
2022-09-14T16:35:49.419Z,1.70
2022-09-14T16:38:28.944Z,1.27
2022-09-14T16:41:00.440Z,1.30
2022-09-14T16:46:44.369Z,1.15
2022-09-14T16:49:31.415Z,1.30
2022-09-14T16:52:08.307Z,1.45
2022-09-14T16:54:42.113Z,1.40
2022-09-14T16:57:15.998Z,1.42
2022-09-14T16:59:47.333Z,1.33
2022-09-14T17:02:21.067Z,1.30
2022-09-14T17:04:55.750Z,1.50
2022-09-14T17:07:36.882Z,1.70
2022-09-14T17:10:15.115Z,1.50
2022-09-14T17:13:09.044Z,1.85
2022-09-14T17:15:57.463Z,1.33
2022-09-14T17:18:41.590Z,1.70
2022-09-14T17:21:21.162Z,1.73
2022-09-14T17:24:11.331Z,1.58
2022-09-14T17:27:07.779Z,2.38
2022-09-14T17:29:49.657Z,1.48
2022-09-14T17:32:26.458Z,1.67
2022-09-14T17:34:56.147Z,1.85
2022-09-14T17:37:34.131Z,1.65
2022-09-14T17:40:13.917Z,1.77
2022-09-14T17:42:43.805Z,1.67
2022-09-14T17:45:18.822Z,1.65
2022-09-14T17:47:48.507Z,1.83
2022-09-14T17:50:39.860Z,1.80
2022-09-14T17:53:16.622Z,1.73
2022-09-14T17:55:47.932Z,1.70
2022-09-14T17:58:20.481Z,1.40
2022-09-14T18:00:51.839Z,1.98
2022-09-14T18:03:20.282Z,1.42
2022-09-14T18:05:58.083Z,1.63
2022-09-14T18:08:29.300Z,1.42
2022-09-14T18:11:12.989Z,1.55
2022-09-14T18:13:43.296Z,1.98
2022-09-14T18:16:12.506Z,1.67
2022-09-14T18:18:41.096Z,1.60
2022-09-14T18:21:17.107Z,1.50
2022-09-14T18:23:53.964Z,1.20
2022-09-14T18:26:34.614Z,1.40
2022-09-14T18:29:11.289Z,1.30
2022-09-14T18:31:46.510Z,1.70
2022-09-14T18:34:25.834Z,1.92
2022-09-14T18:37:02.673Z,1.92
2022-09-14T18:39:34.583Z,1.65
2022-09-14T18:42:04.261Z,1.67
2022-09-14T18:44:32.796Z,2.03
2022-09-14T18:47:12.832Z,2.03
2022-09-14T18:49:41.347Z,2.13
2022-09-14T18:52:16.100Z,1.77
2022-09-14T18:54:52.969Z,1.85
2022-09-14T18:57:23.987Z,1.70
2022-09-14T18:59:53.753Z,1.63
2022-09-14T19:02:22.729Z,1.65
2022-09-14T19:04:53.459Z,1.60
2022-09-14T19:07:22.877Z,1.70
2022-09-14T19:10:01.589Z,2.00
2022-09-14T19:12:30.365Z,1.67
2022-09-14T19:15:00.771Z,1.95
2022-09-14T19:17:29.399Z,1.65
2022-09-14T19:19:58.320Z,1.50
2022-09-14T19:22:27.116Z,1.65
2022-09-14T19:24:59.752Z,1.90
2022-09-14T19:27:29.457Z,2.45
2022-09-14T19:30:00.119Z,1.90
2022-09-14T19:32:30.870Z,1.80
2022-09-14T19:35:04.371Z,1.90
2022-09-14T19:37:34.423Z,2.15
2022-09-14T19:40:05.163Z,1.60
2022-09-14T19:42:39.593Z,1.80
2022-09-14T19:45:08.478Z,1.95
2022-09-14T19:47:37.019Z,2.05
2022-09-14T19:50:10.995Z,2.00
2022-09-14T19:52:39.459Z,2.10
2022-09-14T19:55:10.158Z,1.80
2022-09-14T19:57:38.877Z,2.30
2022-09-14T20:00:09.315Z,2.10
2022-09-14T20:02:38.288Z,2.00
2022-09-14T20:05:08.342Z,1.95
2022-09-14T20:07:38.275Z,2.30
2022-09-14T20:10:06.956Z,2.30
2022-09-14T20:12:36.797Z,2.47
2022-09-14T20:15:05.307Z,2.65
2022-09-14T20:17:33.843Z,2.88
2022-09-14T20:20:04.157Z,2.90
2022-09-14T20:22:43.320Z,2.55
2022-09-14T20:25:11.753Z,2.45
2022-09-14T20:27:41.645Z,2.42
2022-09-14T20:30:10.814Z,2.50
2022-09-14T20:32:42.219Z,2.33
2022-09-14T20:35:10.912Z,2.80
2022-09-14T20:37:39.620Z,2.53
2022-09-14T20:40:08.883Z,2.50
2022-09-14T20:42:37.479Z,2.95
2022-09-14T20:45:14.736Z,2.78
2022-09-14T20:47:48.909Z,2.60
2022-09-14T20:50:18.808Z,2.50
2022-09-14T20:52:47.541Z,2.80
2022-09-14T20:55:16.757Z,2.70
2022-09-14T20:57:45.611Z,2.25
2022-09-14T21:00:29.058Z,2.40
2022-09-14T21:03:00.018Z,2.45
2022-09-14T21:05:31.522Z,2.65
2022-09-14T21:08:00.433Z,2.40
2022-09-14T21:10:32.358Z,2.63
2022-09-14T21:13:01.103Z,2.90
2022-09-14T21:15:33.992Z,3.00
2022-09-14T21:18:03.171Z,2.47
2022-09-14T21:20:34.044Z,2.45
2022-09-14T21:23:16.502Z,2.83
2022-09-14T21:25:44.915Z,2.20
2022-09-14T21:28:16.708Z,2.80
2022-09-14T21:30:46.978Z,2.45
2022-09-14T21:33:18.805Z,2.90
2022-09-14T21:35:47.712Z,2.72
2022-09-14T21:38:17.749Z,2.80
2022-09-14T21:40:49.268Z,2.97
2022-09-14T21:43:18.046Z,2.95
2022-09-14T21:45:51.750Z,2.88
2022-09-14T21:50:52.585Z,2.78
2022-09-14T21:53:21.174Z,2.55
2022-09-14T21:55:52.386Z,2.63
2022-09-14T21:58:22.324Z,2.92
2022-09-14T22:01:07.626Z,2.95
2022-09-14T22:03:44.582Z,2.50
2022-09-14T22:06:27.083Z,2.80
2022-09-14T22:08:56.422Z,2.75
2022-09-14T22:11:25.769Z,2.72
2022-09-14T22:14:04.339Z,2.60
2022-09-14T22:16:35.494Z,2.60
2022-09-14T22:19:09.210Z,2.55
2022-09-14T22:21:41.241Z,2.80
2022-09-14T22:24:16.811Z,2.80
2022-09-14T22:26:46.483Z,2.60
2022-09-14T22:29:18.153Z,2.70
2022-09-14T22:31:48.462Z,2.83
2022-09-14T22:34:17.172Z,2.60
2022-09-14T22:36:46.113Z,2.63
2022-09-14T22:39:16.259Z,2.75
2022-09-14T22:41:48.132Z,2.80
2022-09-14T22:44:20.222Z,3.00
2022-09-14T22:46:50.037Z,2.85
2022-09-14T22:49:18.827Z,2.88
2022-09-14T22:51:47.694Z,3.42
2022-09-14T22:54:16.195Z,2.80
2022-09-14T22:56:44.751Z,2.88
2022-09-14T22:59:15.145Z,2.80
2022-09-14T23:01:43.904Z,3.00
2022-09-14T23:04:16.634Z,2.65
2022-09-14T23:06:47.369Z,2.90
2022-09-14T23:09:17.269Z,2.72
2022-09-14T23:11:46.375Z,2.88
2022-09-14T23:14:15.770Z,2.63
2022-09-14T23:16:45.597Z,2.72
2022-09-14T23:19:16.676Z,3.00
2022-09-14T23:21:45.588Z,2.92
2022-09-14T23:24:14.292Z,2.58
2022-09-14T23:26:43.129Z,2.95
2022-09-14T23:29:15.451Z,2.78
2022-09-14T23:31:44.573Z,2.58
2022-09-14T23:34:13.046Z,2.33
2022-09-14T23:36:43.329Z,1.95
2022-09-14T23:39:11.698Z,2.78
2022-09-14T23:41:40.996Z,2.55
2022-09-14T23:44:09.972Z,2.40
2022-09-14T23:46:38.648Z,2.22
2022-09-14T23:49:07.330Z,2.05
2022-09-14T23:51:37.084Z,1.98
2022-09-14T23:54:08.256Z,2.22
2022-09-14T23:56:38.433Z,2.10
2022-09-14T23:59:07.442Z,1.80
